createdAt,value
2017-04-06T08:21:15.632Z,45
2017-04-06T08:22:16.681Z,55
2017-04-06T08:23:17.916Z,65
2017-04-06T08:24:19.043Z,75
2017-04-06T08:25:20.382Z,75
2017-04-06T08:30:45.528Z,30
2017-04-06T08:31:46.178Z,30
2017-04-06T08:32:48.324Z,30
2017-04-06T08:33:48.959Z,25
2017-04-06T08:34:49.620Z,25
2017-04-06T08:35:50.274Z,25
2017-04-06T08:36:50.944Z,25
2017-04-06T08:37:51.664Z,25
2017-04-06T08:38:52.451Z,25
2017-04-06T08:39:53.214Z,30
2017-04-06T08:40:53.917Z,35
2017-04-06T08:41:54.642Z,40
2017-04-06T08:42:55.378Z,40
2017-04-06T08:43:56.212Z,45
2017-04-06T08:45:20.904Z,55
2017-04-06T08:46:21.538Z,50
2017-04-06T08:47:22.251Z,50
2017-04-06T08:48:22.906Z,45
2017-04-06T08:49:23.731Z,45
2017-04-06T08:50:24.382Z,45
2017-04-06T08:51:25.232Z,50
2017-04-06T08:52:25.965Z,50
2017-04-06T08:53:26.610Z,50
2017-04-06T08:54:27.263Z,45
2017-04-06T08:55:27.936Z,50
2017-04-06T08:56:28.600Z,55
2017-04-06T08:57:29.285Z,50
2017-04-06T08:58:30.009Z,50
2017-04-06T08:59:31.096Z,45
2017-04-06T09:00:32.494Z,45
2017-04-06T09:01:33.475Z,40
2017-04-06T09:02:34.300Z,40
2017-04-06T09:03:34.966Z,35
2017-04-06T09:04:35.613Z,35
2017-04-06T09:05:36.271Z,40
2017-04-06T09:06:36.934Z,45
2017-04-06T09:07:37.621Z,50
2017-04-06T09:08:38.452Z,50
2017-04-06T09:09:39.371Z,50
2017-04-06T09:10:40.293Z,50
2017-04-06T09:11:40.928Z,55
2017-04-06T09:12:41.592Z,60
2017-04-06T09:13:42.258Z,60
2017-04-06T09:14:42.895Z,60
2017-04-06T09:15:43.595Z,55
2017-04-06T09:16:44.308Z,55
2017-04-06T09:17:44.955Z,50
2017-04-06T09:18:45.600Z,50
2017-04-06T09:19:46.271Z,45
2017-04-06T09:20:46.918Z,45
2017-04-06T09:21:47.597Z,35
2017-04-06T09:22:48.382Z,35
2017-04-06T09:23:49.023Z,35
2017-04-06T09:24:49.885Z,40
2017-04-06T09:25:50.773Z,40
2017-04-06T09:26:51.444Z,40
2017-04-06T09:27:52.447Z,45
2017-04-06T09:28:53.145Z,45
2017-04-06T09:29:53.810Z,50
2017-04-06T09:30:54.541Z,50
2017-04-06T09:31:55.587Z,50
2017-04-06T09:32:56.320Z,50
2017-04-06T09:33:57.028Z,50
2017-04-06T09:34:57.882Z,55
2017-04-06T09:35:58.606Z,55
2017-04-06T09:36:59.276Z,50
2017-04-06T09:37:59.940Z,45
2017-04-06T09:39:00.649Z,45
2017-04-06T09:40:01.372Z,45
2017-04-06T09:41:02.051Z,50
2017-04-06T09:42:02.707Z,50
2017-04-06T09:43:03.359Z,50
2017-04-06T09:44:04.018Z,50
2017-04-06T09:45:04.703Z,55
2017-04-06T09:46:05.354Z,55
2017-04-06T09:47:06.013Z,55
2017-04-06T09:48:06.674Z,60
2017-04-06T09:49:07.337Z,65
2017-04-06T09:50:08.013Z,60
2017-04-06T09:51:08.654Z,60
2017-04-06T09:52:09.314Z,55
2017-04-06T09:53:10.018Z,50
2017-04-06T09:54:10.705Z,45
2017-04-06T09:55:11.366Z,45
2017-04-06T09:56:12.038Z,45
2017-04-06T09:57:12.701Z,50
2017-04-06T09:58:13.356Z,50
2017-04-06T09:59:14.075Z,55
2017-04-06T10:00:14.746Z,55
2017-04-06T10:01:15.457Z,45
2017-04-06T10:02:16.115Z,40
2017-04-06T10:03:16.775Z,40
2017-04-06T10:04:17.436Z,45
2017-04-06T10:05:18.125Z,50
2017-04-06T10:06:18.925Z,55
2017-04-06T10:07:19.643Z,60
2017-04-06T10:08:20.284Z,60
2017-04-06T10:09:20.941Z,60
2017-04-06T10:10:21.643Z,60
2017-04-06T10:11:22.333Z,55
2017-04-06T10:12:23.106Z,55
2017-04-06T10:13:23.825Z,60
2017-04-06T10:14:24.572Z,55
2017-04-06T10:15:25.216Z,50
2017-04-06T10:16:26.115Z,45
2017-04-06T10:17:26.853Z,45
2017-04-06T10:18:27.553Z,50
2017-04-06T10:19:28.567Z,50
2017-04-06T10:20:29.304Z,55
2017-04-06T10:21:29.974Z,55
2017-04-06T10:22:30.690Z,50
2017-04-06T10:23:31.372Z,50
2017-04-06T10:24:32.176Z,50
2017-04-06T10:25:32.846Z,45
2017-04-06T10:26:33.502Z,50
2017-04-06T10:27:34.156Z,50
2017-04-06T10:28:34.846Z,50
2017-04-06T10:29:35.571Z,50
2017-04-06T10:30:36.231Z,50
2017-04-06T10:31:37.035Z,50
2017-04-06T10:32:37.821Z,50
2017-04-06T10:33:38.767Z,50
2017-04-06T10:34:39.627Z,55
2017-04-06T10:35:40.321Z,60
2017-04-06T10:36:41.402Z,70
2017-04-06T10:37:42.040Z,65
2017-04-06T10:38:42.798Z,60
2017-04-06T10:39:43.435Z,50
2017-04-06T10:40:44.095Z,50
2017-04-06T10:41:44.784Z,50
2017-04-06T10:42:45.461Z,50
2017-04-06T10:43:46.120Z,50
2017-04-06T10:44:46.764Z,45
2017-04-06T10:45:47.476Z,40
2017-04-06T10:46:48.114Z,35
2017-04-06T10:47:48.774Z,35
2017-04-06T10:48:49.459Z,35
2017-04-06T10:49:50.486Z,40
2017-04-06T10:50:51.146Z,45
2017-04-06T10:51:51.818Z,45
2017-04-06T10:52:52.463Z,45
2017-04-06T10:53:53.598Z,40
2017-04-06T10:54:54.294Z,40
2017-04-06T10:55:55.629Z,40
2017-04-06T10:56:56.405Z,35
2017-04-06T10:57:57.042Z,35
2017-04-06T10:58:57.702Z,35
2017-04-06T10:59:58.352Z,30
2017-04-06T11:00:59.036Z,35
2017-04-06T11:01:59.678Z,35
2017-04-06T11:03:00.338Z,35
2017-04-06T11:04:01.011Z,35
2017-04-06T11:05:01.914Z,40
2017-04-06T11:06:02.559Z,40
2017-04-06T11:07:03.218Z,45
2017-04-06T11:08:03.878Z,45
2017-04-06T11:09:04.542Z,40
2017-04-06T11:10:05.205Z,45
2017-04-06T11:11:05.849Z,45
2017-04-06T11:12:06.503Z,55
2017-04-06T11:13:07.207Z,55
2017-04-06T11:14:07.852Z,60
2017-04-06T11:15:08.515Z,60
2017-04-06T11:16:09.178Z,60
2017-04-06T11:17:09.840Z,60
2017-04-06T11:18:10.508Z,55
2017-04-06T11:19:11.177Z,50
2017-04-06T11:20:11.843Z,50
2017-04-06T11:21:12.498Z,50
2017-04-06T11:22:13.162Z,50
2017-04-06T11:23:13.830Z,50
2017-04-06T11:24:14.488Z,50
2017-04-06T11:25:15.154Z,60
2017-04-06T11:26:15.800Z,55
2017-04-06T11:27:16.452Z,60
2017-04-06T11:28:17.113Z,60
2017-04-06T11:29:17.762Z,55
2017-04-06T11:30:18.421Z,50
2017-04-06T11:31:19.088Z,45
2017-04-06T11:32:19.736Z,45
2017-04-06T11:33:20.397Z,50
2017-04-06T11:34:21.056Z,55
2017-04-06T11:35:21.818Z,55
2017-04-06T11:36:22.486Z,50
2017-04-06T11:37:23.129Z,50
2017-04-06T11:38:23.797Z,50
2017-04-06T11:39:24.449Z,50
2017-04-06T11:40:25.209Z,40
2017-04-06T11:41:25.869Z,40
2017-04-06T11:42:26.775Z,45
2017-04-06T11:43:27.410Z,45
2017-04-06T11:44:28.070Z,45
2017-04-06T11:45:28.735Z,40
2017-04-06T11:46:29.386Z,40
2017-04-06T11:47:30.090Z,45
2017-04-06T11:48:30.729Z,55
2017-04-06T11:49:31.391Z,50
2017-04-06T11:50:32.057Z,50
2017-04-06T11:51:32.697Z,50
2017-04-06T11:52:33.359Z,50
2017-04-06T11:53:34.023Z,50
2017-04-06T11:54:34.690Z,45
2017-04-06T11:55:35.325Z,45
2017-04-06T11:56:35.986Z,45
2017-04-06T11:57:36.649Z,50
2017-04-06T11:58:37.300Z,55
2017-04-06T11:59:37.965Z,60
2017-04-06T12:00:38.623Z,55
2017-04-06T12:01:39.276Z,50
2017-04-06T12:02:39.940Z,55
2017-04-06T12:03:40.639Z,45
2017-04-06T12:04:41.300Z,40
2017-04-06T12:05:41.959Z,40
2017-04-06T12:06:42.619Z,40
2017-04-06T12:07:43.279Z,35
2017-04-06T12:08:43.939Z,35
2017-04-06T12:09:44.599Z,40
2017-04-06T12:10:45.260Z,50
2017-04-06T12:11:45.921Z,55
2017-04-06T12:12:46.574Z,55
2017-04-06T12:13:47.235Z,50
2017-04-06T12:14:47.894Z,45
2017-04-06T12:15:48.557Z,50
2017-04-06T12:16:49.221Z,55
2017-04-06T12:17:50.159Z,50
2017-04-06T12:18:50.823Z,45
2017-04-06T12:19:51.474Z,35
2017-04-06T12:20:52.122Z,30
2017-04-06T12:21:52.772Z,25
2017-04-06T12:22:53.425Z,25
2017-04-06T12:23:54.088Z,25
2017-04-06T12:24:54.748Z,25
2017-04-06T12:25:55.450Z,30
2017-04-06T12:26:56.114Z,40
2017-04-06T12:27:56.757Z,45
2017-04-06T12:28:57.419Z,50
2017-04-06T12:29:58.083Z,55
2017-04-06T12:30:58.735Z,60
2017-04-06T12:31:59.410Z,60
2017-04-06T12:33:00.053Z,60
2017-04-06T12:34:00.713Z,55
2017-04-06T12:35:01.384Z,50
2017-04-06T12:36:02.051Z,50
2017-04-06T12:37:02.761Z,40
2017-04-06T12:38:04.233Z,35
2017-04-06T12:39:04.913Z,30
2017-04-06T12:40:05.593Z,25
2017-04-06T12:41:06.538Z,25
2017-04-06T12:42:07.693Z,25
2017-04-06T12:43:08.351Z,30
2017-04-06T12:44:09.478Z,35
2017-04-06T12:45:10.143Z,40
2017-04-06T12:46:10.878Z,40
2017-04-06T12:47:11.690Z,40
2017-04-06T12:48:12.378Z,40
2017-04-06T12:49:13.034Z,40
2017-04-06T12:50:13.704Z,45
2017-04-06T12:51:14.639Z,50
2017-04-06T12:52:15.344Z,50
2017-04-06T12:53:15.997Z,50
2017-04-06T12:54:16.666Z,50
2017-04-06T12:55:17.354Z,45
2017-04-06T12:56:18.364Z,45
2017-04-06T12:57:19.049Z,40
2017-04-06T12:58:19.685Z,40
2017-04-06T12:59:20.346Z,40
2017-04-06T13:00:21.014Z,40
2017-04-06T13:01:21.683Z,40
2017-04-06T13:02:22.320Z,40
2017-04-06T13:03:22.979Z,35
2017-04-06T13:04:23.756Z,35
2017-04-06T13:05:24.414Z,30
2017-04-06T13:06:25.087Z,35
2017-04-06T13:07:25.736Z,30
2017-04-06T13:08:26.398Z,30
2017-04-06T13:09:27.058Z,30
2017-04-06T13:10:27.731Z,35
2017-04-06T13:11:28.425Z,35
2017-04-06T13:12:29.062Z,40
2017-04-06T13:13:29.730Z,45
2017-04-06T13:14:30.421Z,45
2017-04-06T13:15:31.146Z,50
2017-04-06T13:16:32.304Z,50
2017-04-06T13:17:33.253Z,55
2017-04-06T13:18:33.937Z,50
2017-04-06T13:19:34.579Z,55
2017-04-06T13:20:35.256Z,55
2017-04-06T13:21:36.165Z,50
2017-04-06T13:22:36.825Z,50
2017-04-06T13:23:37.486Z,50
2017-04-06T13:24:38.156Z,55
2017-04-06T13:25:38.800Z,50
2017-04-06T13:26:39.460Z,50
2017-04-06T13:27:40.120Z,50
2017-04-06T13:28:40.777Z,50
2017-04-06T13:29:41.439Z,50
2017-04-06T13:30:42.139Z,50
2017-04-06T13:31:42.788Z,50
2017-04-06T13:32:43.447Z,40
2017-04-06T13:33:44.107Z,40
2017-04-06T13:34:44.769Z,45
2017-04-06T13:35:45.435Z,50
2017-04-06T13:36:46.179Z,50
2017-04-06T13:37:46.838Z,50
2017-04-06T13:38:47.499Z,40
2017-04-06T13:39:48.162Z,35
2017-04-06T13:40:48.821Z,35
2017-04-06T13:41:49.477Z,35
2017-04-06T13:42:50.136Z,30
2017-04-06T13:43:50.796Z,30
2017-04-06T13:44:51.457Z,30
2017-04-06T13:45:52.117Z,30
2017-04-06T13:46:52.774Z,35
2017-04-06T13:47:53.626Z,35
2017-04-06T13:48:54.284Z,30
2017-04-06T13:49:54.999Z,30
2017-04-06T13:50:55.688Z,25
2017-04-06T13:51:56.347Z,25
2017-04-06T13:52:57.006Z,25
2017-04-06T13:53:57.667Z,25
2017-04-06T13:54:58.335Z,25
2017-04-06T13:55:58.995Z,25
2017-04-06T13:56:59.688Z,25
2017-04-06T13:58:00.353Z,25
2017-04-06T13:59:01.026Z,25
2017-04-06T14:00:01.679Z,25
2017-04-06T14:01:02.337Z,30
2017-04-06T14:02:03.096Z,35
2017-04-06T14:03:03.758Z,40
2017-04-06T14:04:04.428Z,45
2017-04-06T14:05:05.072Z,45
2017-04-06T14:06:05.731Z,45
2017-04-06T14:07:06.390Z,45
2017-04-06T14:08:07.050Z,45
2017-04-06T14:09:07.709Z,40
2017-04-06T14:10:08.368Z,40
2017-04-06T14:11:09.029Z,45
2017-04-06T14:12:09.688Z,45
2017-04-06T14:13:10.637Z,45
2017-04-06T14:14:11.273Z,50
2017-04-06T14:15:11.936Z,50
2017-04-06T14:16:12.590Z,50
2017-04-06T14:17:13.249Z,45
2017-04-06T14:18:13.919Z,45
2017-04-06T14:19:15.272Z,45
2017-04-06T14:20:16.406Z,40
2017-04-06T14:21:17.664Z,40
2017-04-06T14:22:18.924Z,35
2017-04-06T14:23:19.827Z,35
2017-04-06T14:24:20.463Z,35
2017-04-06T14:25:21.122Z,35
2017-04-06T14:26:21.782Z,40
2017-04-06T14:27:22.547Z,40
2017-04-06T14:28:23.191Z,45
2017-04-06T14:29:23.844Z,45
2017-04-06T14:30:24.505Z,45
2017-04-06T14:31:25.164Z,45
2017-04-06T14:32:25.824Z,45
2017-04-06T14:33:26.583Z,45
2017-04-06T14:34:27.243Z,45
2017-04-06T14:35:27.943Z,40
2017-04-06T14:36:28.602Z,40
2017-04-06T14:37:29.262Z,45
2017-04-06T14:38:29.913Z,45
2017-04-06T14:39:30.575Z,45
2017-04-06T14:40:31.234Z,45
2017-04-06T14:41:31.893Z,45
2017-04-06T14:42:32.553Z,45
2017-04-06T14:43:33.211Z,45
2017-04-06T14:44:33.872Z,45
2017-04-06T14:45:34.532Z,40
2017-04-06T14:46:35.195Z,40
2017-04-06T14:47:35.842Z,35
2017-04-06T14:48:36.652Z,30
2017-04-06T14:49:37.313Z,30
2017-04-06T14:50:37.973Z,30
2017-04-06T14:51:38.632Z,30
2017-04-06T14:52:39.292Z,30
2017-04-06T14:53:39.953Z,25
2017-04-06T14:54:40.612Z,30
2017-04-06T14:55:41.269Z,35
2017-04-06T14:56:41.930Z,40
2017-04-06T14:57:42.589Z,40
2017-04-06T14:58:43.250Z,40
2017-04-06T14:59:43.911Z,35
2017-04-06T15:00:44.575Z,35
2017-04-06T15:01:45.231Z,35
2017-04-06T15:02:45.893Z,35
2017-04-06T15:03:46.551Z,35
2017-04-06T15:04:47.211Z,35
2017-04-06T15:05:48.087Z,35
2017-04-06T15:06:48.725Z,35
2017-04-06T15:07:49.385Z,35
2017-04-06T15:08:50.043Z,35
2017-04-06T15:09:50.703Z,35
2017-04-06T15:10:51.362Z,35
2017-04-06T15:11:52.021Z,35
2017-04-06T15:12:52.684Z,35
2017-04-06T15:13:53.334Z,35
2017-04-06T15:14:53.993Z,35
2017-04-06T15:15:54.653Z,30
2017-04-06T15:16:55.310Z,30
2017-04-06T15:17:56.055Z,25
2017-04-06T15:18:56.724Z,25
2017-04-06T15:19:57.397Z,30
2017-04-06T15:20:58.047Z,30
2017-04-06T15:21:58.690Z,30
2017-04-06T15:22:59.498Z,30
2017-04-06T15:24:00.158Z,35
2017-04-06T15:25:00.815Z,30
2017-04-06T15:26:01.477Z,30
2017-04-06T15:27:02.132Z,30
2017-04-06T15:28:02.992Z,30
2017-04-06T15:29:03.665Z,30
2017-04-06T15:30:04.311Z,30
2017-04-06T15:31:04.971Z,35
2017-04-06T15:32:05.629Z,35
2017-04-06T15:33:06.288Z,30
2017-04-06T15:34:06.948Z,30
2017-04-06T15:35:07.607Z,30
2017-04-06T15:36:08.266Z,35
2017-04-06T15:37:08.925Z,30
2017-04-06T15:38:09.585Z,30
2017-04-06T15:39:10.243Z,25
2017-04-06T15:40:10.903Z,25
2017-04-06T15:41:11.568Z,20
2017-04-06T15:42:12.215Z,20
2017-04-06T15:43:12.875Z,20
2017-04-06T15:44:13.535Z,20
2017-04-06T15:45:14.187Z,20
2017-04-06T15:46:14.842Z,20
2017-04-06T15:47:15.503Z,20
2017-04-06T15:48:16.161Z,15
2017-04-06T15:49:16.820Z,15
2017-04-06T15:50:17.480Z,15
2017-04-06T15:51:18.135Z,15
2017-04-06T15:52:18.781Z,15
2017-04-06T15:53:19.441Z,15
2017-04-06T15:54:20.128Z,20
2017-04-06T15:55:20.847Z,20
2017-04-06T15:56:21.491Z,20
2017-04-06T15:57:22.145Z,20
2017-04-06T15:58:22.806Z,20
2017-04-06T15:59:23.462Z,15
2017-04-06T16:00:24.119Z,20
2017-04-06T16:01:24.794Z,20
2017-04-06T16:02:25.454Z,25
2017-04-06T16:03:26.113Z,25
2017-04-06T16:04:26.771Z,25
2017-04-06T16:05:27.439Z,25
2017-04-06T16:06:28.084Z,25
2017-04-06T16:07:28.745Z,25
2017-04-06T16:08:29.399Z,25
2017-04-06T16:09:30.058Z,25
2017-04-06T16:10:30.718Z,20
2017-04-06T16:11:31.378Z,20
2017-04-06T16:12:32.038Z,20
2017-04-06T16:13:32.698Z,20
2017-04-06T16:14:33.356Z,20
2017-04-06T16:15:34.013Z,15
2017-04-06T16:16:34.670Z,15
2017-04-06T16:17:35.333Z,15
2017-04-06T16:18:35.989Z,15
2017-04-06T16:19:36.649Z,15
2017-04-06T16:20:37.307Z,15
2017-04-06T16:21:37.970Z,20
2017-04-06T16:22:38.628Z,15
2017-04-06T16:23:39.288Z,15
2017-04-06T16:24:39.948Z,15
2017-04-06T16:25:40.608Z,15
2017-04-06T16:26:41.268Z,15
2017-04-06T16:27:41.928Z,15
2017-04-06T16:28:42.588Z,15
2017-04-06T16:29:43.248Z,15
2017-04-06T16:30:43.904Z,15
2017-04-06T16:31:44.553Z,15
2017-04-06T16:32:45.211Z,15
2017-04-06T16:33:45.871Z,15
2017-04-06T16:34:46.532Z,15
2017-04-06T16:35:47.189Z,15
2017-04-06T16:36:47.847Z,15
2017-04-06T16:37:48.507Z,15
2017-04-06T16:38:49.165Z,15
2017-04-06T16:39:49.825Z,15
2017-04-06T16:40:50.484Z,15
2017-04-06T16:41:51.142Z,15
2017-04-06T16:42:51.801Z,15
2017-04-06T16:43:52.460Z,15
2017-04-06T16:44:53.118Z,15
2017-04-06T16:45:53.779Z,15
2017-04-06T16:46:54.431Z,15
2017-04-06T16:47:55.085Z,15
2017-04-06T16:48:55.743Z,15
2017-04-06T16:49:56.404Z,15
2017-04-06T16:50:57.062Z,15
2017-04-06T16:51:57.724Z,15
2017-04-06T16:52:58.371Z,10
2017-04-06T16:53:59.031Z,10
2017-04-06T16:54:59.692Z,10
2017-04-06T16:56:00.351Z,10
2017-04-06T16:57:01.007Z,10
2017-04-06T16:58:01.668Z,10
2017-04-06T16:59:02.326Z,10
2017-04-06T17:00:02.986Z,10
2017-04-06T17:01:03.644Z,10
2017-04-06T17:02:04.301Z,10
2017-04-06T17:03:04.962Z,10
2017-04-06T17:04:05.620Z,10
2017-04-06T17:05:06.281Z,10
2017-04-06T17:06:06.939Z,10
2017-04-06T17:07:07.598Z,10
2017-04-06T17:08:08.257Z,10
2017-04-06T17:09:09.069Z,10
2017-04-06T17:10:09.719Z,10
2017-04-06T17:11:10.379Z,10
2017-04-06T17:12:11.037Z,5
2017-04-06T17:13:11.693Z,5
2017-04-06T17:14:12.351Z,5
2017-04-06T17:15:13.009Z,5
2017-04-06T17:16:13.667Z,5
2017-04-06T17:17:14.326Z,5
2017-04-06T17:18:14.984Z,5
2017-04-06T17:19:15.645Z,5
2017-04-06T17:20:16.295Z,5
2017-04-06T17:21:16.946Z,5
2017-04-06T17:22:17.595Z,5
2017-04-06T17:23:18.252Z,5
2017-04-06T17:24:18.910Z,5
2017-04-06T17:25:19.568Z,5
2017-04-06T17:26:20.230Z,5
2017-04-06T17:27:20.876Z,5
2017-04-06T17:28:21.534Z,5
2017-04-06T17:29:22.184Z,5
2017-04-06T17:30:22.841Z,5
2017-04-06T17:31:23.499Z,5
2017-04-06T17:32:24.147Z,5
2017-04-06T17:33:24.797Z,5
2017-04-06T17:34:25.461Z,0
2017-04-06T17:35:26.102Z,0
2017-04-06T17:36:26.760Z,5
2017-04-06T17:37:27.419Z,5
2017-04-06T17:38:28.075Z,5
2017-04-06T17:39:28.731Z,5
2017-04-06T17:40:29.378Z,5
2017-04-06T17:41:30.036Z,0
2017-04-06T17:42:30.694Z,0
2017-04-06T17:43:31.352Z,0
2017-04-06T17:44:32.003Z,0
2017-04-06T17:45:32.653Z,0
2017-04-06T17:46:33.310Z,0
2017-04-06T17:47:33.967Z,0
2017-04-06T17:48:34.625Z,0
2017-04-06T17:49:35.283Z,0
2017-04-06T17:50:35.942Z,0
2017-04-06T17:51:36.597Z,0
2017-04-06T17:52:37.255Z,0
2017-04-06T17:53:37.914Z,0
2017-04-06T17:54:38.569Z,0
2017-04-06T17:55:39.228Z,0
2017-04-06T17:56:39.881Z,0
2017-04-06T17:57:40.539Z,0
2017-04-06T17:58:41.196Z,0
2017-04-06T17:59:41.856Z,0
2017-04-06T18:00:42.514Z,0
2017-04-06T18:01:43.172Z,0
2017-04-06T18:02:43.828Z,0
2017-04-06T18:03:44.489Z,0
2017-04-06T18:04:45.135Z,0
2017-04-06T18:05:45.794Z,0
2017-04-06T18:06:46.450Z,0
2017-04-06T18:07:47.107Z,0
2017-04-06T18:08:47.765Z,0
2017-04-06T18:09:48.581Z,0
2017-04-06T18:10:49.224Z,0
2017-04-06T18:11:49.881Z,0
2017-04-06T18:12:50.537Z,0
2017-04-06T18:13:51.195Z,0
2017-04-06T18:14:51.852Z,0
2017-04-06T18:15:52.507Z,0
2017-04-06T18:16:53.171Z,0
2017-04-06T18:17:53.817Z,0
2017-04-06T18:18:54.475Z,0
2017-04-06T18:19:55.129Z,0
2017-04-06T18:20:55.788Z,0
2017-04-06T18:21:56.447Z,0
2017-04-06T18:22:57.105Z,0
2017-04-06T18:23:57.763Z,0
2017-04-06T18:24:58.420Z,0
2017-04-06T18:25:59.077Z,0
2017-04-06T18:26:59.735Z,0
2017-04-06T18:28:00.417Z,0
2017-04-06T18:29:01.301Z,0
2017-04-06T18:30:01.961Z,0
2017-04-06T18:31:02.615Z,0
2017-04-06T18:32:03.272Z,0
2017-04-06T18:33:03.931Z,0
2017-04-06T18:34:04.939Z,0
2017-04-06T18:35:05.596Z,0
2017-04-06T18:36:06.251Z,0
2017-04-06T18:37:06.909Z,0
2017-04-06T18:38:07.565Z,0
2017-04-06T18:39:08.221Z,0
2017-04-06T18:40:08.877Z,0
2017-04-06T18:41:09.533Z,0
2017-04-06T18:42:10.191Z,0
2017-04-06T18:43:10.848Z,0
2017-04-06T18:44:11.503Z,0
2017-04-06T18:45:12.161Z,0
2017-04-06T18:46:12.830Z,0
2017-04-06T18:47:13.486Z,0
2017-04-06T18:48:14.145Z,0
2017-04-06T18:49:14.800Z,0
2017-04-06T18:50:15.459Z,0
2017-04-06T18:51:16.116Z,0
2017-04-06T18:52:16.773Z,0
2017-04-06T18:53:17.432Z,0
2017-04-06T18:54:18.089Z,0
2017-04-06T18:55:18.947Z,0
2017-04-06T18:56:19.604Z,0
2017-04-06T18:57:20.264Z,0
2017-04-06T18:58:20.920Z,0
2017-04-06T18:59:21.577Z,0
2017-04-06T19:00:22.233Z,0
2017-04-06T19:01:22.888Z,0
2017-04-06T19:02:23.546Z,0
2017-04-06T19:03:24.206Z,0
2017-04-06T19:04:24.860Z,0
2017-04-06T19:05:25.517Z,0
2017-04-06T19:06:26.174Z,0
2017-04-06T19:07:26.831Z,0
2017-04-06T19:08:27.487Z,0
2017-04-06T19:09:28.145Z,0
2017-04-06T19:10:28.802Z,0
2017-04-06T19:11:29.459Z,0
2017-04-06T19:12:30.115Z,0
2017-04-06T19:13:30.771Z,0
2017-04-06T19:14:31.529Z,0
2017-04-06T19:15:32.183Z,0
2017-04-06T19:16:32.839Z,0
2017-04-06T19:17:33.498Z,0
2017-04-06T19:18:34.152Z,0
2017-04-06T19:19:34.808Z,0
2017-04-06T19:20:35.463Z,0
2017-04-06T19:21:36.120Z,0
2017-04-06T19:22:36.817Z,0
2017-04-06T19:23:37.468Z,0
2017-04-06T19:24:38.124Z,0
2017-04-06T19:25:38.773Z,0
2017-04-06T19:26:39.429Z,0
2017-04-06T19:27:40.084Z,0
2017-04-06T19:28:40.741Z,0
2017-04-06T19:29:41.397Z,0
2017-04-06T19:30:42.050Z,0
2017-04-06T19:31:42.702Z,0
2017-04-06T19:32:43.347Z,0
2017-04-06T19:33:44.007Z,0
2017-04-06T19:34:44.756Z,0
2017-04-06T19:35:45.412Z,0
2017-04-06T19:36:46.070Z,0
2017-04-06T19:37:46.726Z,0
2017-04-06T19:38:47.383Z,0
2017-04-06T19:39:48.046Z,0
2017-04-06T19:40:48.688Z,0
2017-04-06T19:41:49.343Z,0
2017-04-06T19:42:49.999Z,0
2017-04-06T19:43:50.657Z,0
2017-04-06T19:44:51.308Z,0
2017-04-06T19:45:51.963Z,0
2017-04-06T19:46:52.621Z,0
2017-04-06T19:47:53.266Z,0
2017-04-06T19:48:53.924Z,0
2017-04-06T19:49:54.582Z,0
2017-04-06T19:50:55.241Z,0
2017-04-06T19:51:55.891Z,0
2017-04-06T19:52:56.554Z,0
2017-04-06T19:53:57.197Z,0
2017-04-06T19:54:57.855Z,0
2017-04-06T19:55:58.508Z,0
2017-04-06T19:56:59.165Z,0
2017-04-06T19:57:59.823Z,0
2017-04-06T19:59:00.477Z,0
2017-04-06T20:00:01.137Z,0
2017-04-06T20:01:01.793Z,0
2017-04-06T20:02:02.450Z,0
2017-04-06T20:03:03.107Z,0
2017-04-06T20:04:03.763Z,0
2017-04-06T20:05:04.420Z,0
2017-04-06T20:06:05.077Z,0
2017-04-06T20:07:05.733Z,0
2017-04-06T20:08:06.389Z,0
2017-04-06T20:09:07.047Z,0
2017-04-06T20:10:07.707Z,0
2017-04-06T20:11:08.361Z,0
2017-04-06T20:12:09.031Z,0
2017-04-06T20:13:09.818Z,0
2017-04-06T20:14:10.479Z,0
2017-04-06T20:15:11.135Z,0
2017-04-06T20:16:11.791Z,0
2017-04-06T20:17:12.448Z,0
2017-04-06T20:18:13.106Z,0
2017-04-06T20:19:13.760Z,0
2017-04-06T20:20:14.417Z,0
2017-04-06T20:21:15.072Z,0
2017-04-06T20:32:02.115Z,0
2017-04-06T20:33:02.771Z,0
2017-04-06T20:34:03.428Z,0
2017-04-06T20:35:04.085Z,0
2017-04-06T20:36:07.847Z,0
2017-04-06T20:37:08.502Z,0
2017-04-06T20:38:09.160Z,0
2017-04-06T20:39:09.818Z,0
2017-04-06T20:40:10.477Z,0
2017-04-06T20:41:11.185Z,0
2017-04-06T20:42:11.842Z,0
2017-04-06T20:43:12.497Z,0
2017-04-06T20:44:13.155Z,0
2017-04-06T20:45:13.813Z,0
2017-04-06T20:46:14.468Z,0
2017-04-06T20:47:15.125Z,0
2017-04-06T20:48:15.781Z,0
2017-04-06T20:49:16.439Z,0
2017-04-06T20:50:17.097Z,0
2017-04-06T20:51:17.754Z,0
2017-04-06T20:52:18.403Z,0
2017-04-06T20:53:19.058Z,0
2017-04-06T20:54:19.716Z,0
2017-04-06T20:55:20.364Z,0
2017-04-06T20:56:21.021Z,0
2017-04-06T20:57:21.679Z,0
2017-04-06T20:58:22.326Z,0
2017-04-06T20:59:23.082Z,0
2017-04-06T21:00:23.739Z,0
2017-04-06T21:01:24.395Z,0
2017-04-06T21:02:25.051Z,0
2017-04-06T21:03:25.709Z,0
2017-04-06T21:04:26.367Z,0
2017-04-06T21:05:27.025Z,0
2017-04-06T21:06:27.680Z,0
2017-04-06T21:07:28.337Z,0
2017-04-06T21:08:28.994Z,0
2017-04-06T21:09:29.651Z,0
2017-04-06T21:10:30.308Z,0
2017-04-06T21:11:30.964Z,0
2017-04-06T21:12:31.622Z,0
2017-04-06T21:13:32.282Z,0
2017-04-06T21:14:32.926Z,0
2017-04-06T21:15:33.584Z,0
2017-04-06T21:16:34.240Z,0
2017-04-06T21:17:34.896Z,0
2017-04-06T21:18:35.553Z,0
2017-04-06T21:19:36.211Z,0
2017-04-06T21:20:36.864Z,0
2017-04-06T21:21:37.519Z,0
2017-04-06T21:22:38.175Z,0
2017-04-06T21:23:38.832Z,0
2017-04-06T21:24:39.488Z,0
2017-04-06T21:25:40.144Z,0
2017-04-06T21:26:40.802Z,0
2017-04-06T21:27:41.559Z,0
2017-04-06T21:28:42.218Z,0
2017-04-06T21:29:42.867Z,0
2017-04-06T21:30:43.523Z,0
2017-04-06T21:31:44.181Z,0
2017-04-06T21:32:44.838Z,0
2017-04-06T21:33:45.493Z,0
2017-04-06T21:34:46.151Z,0
2017-04-06T21:35:46.807Z,0
2017-04-06T21:36:47.463Z,0
2017-04-06T21:37:48.119Z,0
2017-04-06T21:38:48.776Z,0
2017-04-06T21:39:49.434Z,0
2017-04-06T21:40:50.116Z,0
2017-04-06T21:41:50.750Z,0
2017-04-06T21:42:51.408Z,0
2017-04-06T21:43:52.067Z,0
2017-04-06T21:44:52.721Z,0
2017-04-06T21:45:53.478Z,0
2017-04-06T21:46:54.135Z,0
2017-04-06T21:47:54.778Z,0
2017-04-06T21:48:55.433Z,0
2017-04-06T21:49:56.090Z,0
2017-04-06T21:50:56.749Z,0
2017-04-06T21:51:57.405Z,0
2017-04-06T21:52:58.060Z,0
2017-04-06T21:53:58.715Z,0
2017-04-06T21:54:59.366Z,0
2017-04-06T21:56:00.022Z,0
2017-04-06T21:57:00.676Z,0
2017-04-06T21:58:01.327Z,0
2017-04-06T21:59:01.985Z,0
2017-04-06T22:00:02.634Z,0
2017-04-06T22:01:03.289Z,0
2017-04-06T22:02:04.344Z,0
2017-04-06T22:03:05.002Z,0
2017-04-06T22:04:05.657Z,0
2017-04-06T22:05:06.313Z,0
2017-04-06T22:06:06.970Z,0
2017-04-06T22:07:07.775Z,0
2017-04-06T22:08:08.431Z,0
2017-04-06T22:09:09.086Z,0
2017-04-06T22:10:09.744Z,0
2017-04-06T22:11:10.398Z,0
2017-04-06T22:12:11.056Z,0
2017-04-06T22:13:11.710Z,0
2017-04-06T22:14:12.366Z,0
2017-04-06T22:15:13.023Z,0
2017-04-06T22:16:13.680Z,0
2017-04-06T22:17:14.336Z,0
2017-04-06T22:18:14.987Z,0
2017-04-06T22:19:15.647Z,0
2017-04-06T22:20:16.293Z,0
2017-04-06T22:21:16.952Z,0
2017-04-06T22:22:17.607Z,0
2017-04-06T22:23:18.263Z,0
2017-04-06T22:24:18.919Z,0
2017-04-06T22:25:19.576Z,0
2017-04-06T22:26:20.331Z,0
2017-04-06T22:27:20.985Z,0
2017-04-06T22:28:21.633Z,0
2017-04-06T22:29:22.290Z,0
2017-04-06T22:30:22.948Z,0
2017-04-06T22:31:23.605Z,0
2017-04-06T22:32:24.411Z,0
2017-04-06T22:33:25.069Z,0
2017-04-06T22:34:25.721Z,0
2017-04-06T22:35:26.378Z,0
2017-04-06T22:36:27.029Z,0
2017-04-06T22:37:27.683Z,0
2017-04-06T22:38:28.338Z,0
2017-04-06T22:39:28.998Z,0
2017-04-06T22:40:29.653Z,0
2017-04-06T22:41:30.312Z,0
2017-04-06T22:42:30.969Z,0
2017-04-06T22:43:31.627Z,0
2017-04-06T22:44:32.286Z,0
2017-04-06T22:45:32.943Z,0
2017-04-06T22:46:33.601Z,0
2017-04-06T22:47:34.256Z,0
2017-04-06T22:48:34.918Z,0
2017-04-06T22:49:35.571Z,0
2017-04-06T22:50:36.228Z,0
2017-04-06T22:51:36.985Z,0
2017-04-06T22:52:37.642Z,0
2017-04-06T22:53:38.298Z,0
2017-04-06T22:54:38.954Z,0
2017-04-06T22:55:39.612Z,0
2017-04-06T22:56:40.268Z,0
2017-04-06T22:57:40.925Z,0
2017-04-06T22:58:41.575Z,0
2017-04-06T22:59:42.232Z,0
2017-04-06T23:00:42.890Z,0
2017-04-06T23:01:43.547Z,0
2017-04-06T23:02:44.202Z,0
2017-04-06T23:03:44.859Z,0
2017-04-06T23:04:45.517Z,0
2017-04-06T23:05:46.173Z,0
2017-04-06T23:06:46.831Z,0
2017-04-06T23:07:47.487Z,0
2017-04-06T23:08:48.140Z,0
2017-04-06T23:09:48.797Z,0
2017-04-06T23:10:49.455Z,0
2017-04-06T23:11:50.415Z,0
2017-04-06T23:12:51.063Z,0
2017-04-06T23:13:51.722Z,0